createdAt,value
2018-12-14T00:00:30.295Z,227.25
2018-12-14T00:03:04.736Z,228.25
2018-12-14T00:05:38.657Z,213.50
2018-12-14T00:08:10.276Z,237.50
2018-12-14T00:10:42.148Z,209.75
2018-12-14T00:13:13.789Z,235.50
2018-12-14T00:15:46.475Z,226.75
2018-12-14T00:18:18.612Z,226.50
2018-12-14T00:20:50.633Z,206.25
2018-12-14T00:23:22.383Z,223.75
2018-12-14T00:25:54.232Z,203.50
2018-12-14T00:28:25.990Z,221.25
2018-12-14T00:30:57.905Z,240.25
2018-12-14T00:33:29.954Z,216.50
2018-12-14T00:36:02.081Z,239.25
2018-12-14T00:38:34.181Z,248.50
2018-12-14T00:41:05.950Z,220.50
2018-12-14T00:43:37.995Z,230.50
2018-12-14T00:46:09.719Z,248.25
2018-12-14T00:48:41.974Z,237.00
2018-12-14T00:51:13.661Z,230.00
2018-12-14T00:53:45.605Z,234.50
2018-12-14T00:56:17.423Z,242.50
2018-12-14T00:58:49.737Z,220.25
2018-12-14T01:01:21.606Z,250.75
2018-12-14T01:03:53.330Z,226.25
2018-12-14T01:06:25.033Z,235.25
2018-12-14T01:08:56.866Z,233.75
2018-12-14T01:11:28.738Z,247.75
2018-12-14T01:14:00.611Z,205.25
2018-12-14T01:16:32.825Z,241.00
2018-12-14T01:19:10.756Z,244.25
2018-12-14T01:21:43.950Z,233.25
2018-12-14T01:24:16.110Z,252.00
2018-12-14T01:26:48.340Z,228.00
2018-12-14T01:29:20.046Z,261.50
2018-12-14T01:31:52.076Z,245.75
2018-12-14T01:34:23.790Z,237.75
2018-12-14T01:36:55.501Z,216.00
2018-12-14T01:39:27.315Z,224.00
2018-12-14T01:42:04.617Z,259.00
2018-12-14T01:44:33.037Z,206.25
2018-12-14T01:47:04.793Z,222.00
2018-12-14T01:49:36.979Z,225.75
2018-12-14T01:52:10.058Z,238.00
2018-12-14T01:54:41.919Z,231.75
2018-12-14T01:57:13.891Z,241.75
2018-12-14T01:59:45.608Z,231.00
2018-12-14T02:02:18.689Z,243.50
2018-12-14T02:04:50.262Z,221.00
2018-12-14T02:07:22.074Z,228.75
2018-12-14T02:09:53.744Z,234.00
2018-12-14T02:12:25.396Z,223.75
2018-12-14T02:14:57.062Z,217.00
2018-12-14T02:17:28.974Z,247.75
2018-12-14T02:20:01.520Z,268.25
2018-12-14T02:22:35.464Z,264.75
2018-12-14T02:25:07.566Z,265.00
2018-12-14T02:27:39.114Z,251.50
2018-12-14T02:30:20.377Z,235.25
2018-12-14T02:32:52.330Z,246.50
2018-12-14T02:35:24.168Z,247.50
2018-12-14T02:37:57.004Z,277.00
2018-12-14T02:40:28.977Z,264.75
2018-12-14T02:43:00.810Z,242.00
2018-12-14T02:45:32.456Z,215.00
2018-12-14T02:48:04.233Z,241.75
2018-12-14T02:50:36.737Z,236.75
2018-12-14T02:53:09.219Z,258.75
2018-12-14T02:55:40.994Z,261.25
2018-12-14T02:58:13.166Z,234.00
2018-12-14T03:00:45.036Z,217.25
2018-12-14T03:03:16.692Z,241.00
2018-12-14T03:05:48.360Z,269.50
2018-12-14T03:08:20.232Z,213.25
2018-12-14T03:10:51.963Z,232.50
2018-12-14T03:13:23.912Z,249.00
2018-12-14T03:15:55.618Z,238.50
2018-12-14T03:18:28.757Z,240.50
2018-12-14T03:21:00.769Z,245.75
2018-12-14T03:23:33.438Z,213.25
2018-12-14T03:26:05.060Z,261.50
2018-12-14T03:28:36.528Z,251.75
2018-12-14T03:31:08.025Z,255.50
2018-12-14T03:33:40.211Z,282.25
2018-12-14T03:36:11.757Z,285.75
2018-12-14T03:38:43.466Z,245.50
2018-12-14T03:41:14.919Z,248.50
2018-12-14T03:43:46.526Z,260.50
2018-12-14T03:46:17.930Z,245.75
2018-12-14T03:48:49.669Z,250.75
2018-12-14T03:51:25.661Z,244.75
2018-12-14T03:53:57.257Z,257.75
2018-12-14T03:56:28.667Z,226.00
2018-12-14T03:59:00.306Z,242.00
2018-12-14T04:01:31.765Z,250.75
2018-12-14T04:04:03.448Z,242.00
2018-12-14T04:06:35.589Z,206.25
2018-12-14T04:09:10.450Z,247.75
2018-12-14T04:11:42.274Z,230.25
2018-12-14T04:14:13.818Z,212.50
2018-12-14T04:16:45.291Z,234.00
2018-12-14T04:19:16.864Z,228.00
2018-12-14T04:21:49.498Z,227.25
2018-12-14T04:24:21.076Z,202.25
2018-12-14T04:26:52.812Z,220.25
2018-12-14T04:29:24.517Z,210.75
2018-12-14T04:31:56.946Z,210.50
2018-12-14T04:34:28.625Z,225.50
2018-12-14T04:37:00.532Z,208.25
2018-12-14T04:39:32.650Z,217.50
2018-12-14T04:42:04.198Z,200.50
2018-12-14T04:44:36.186Z,210.25
2018-12-14T04:47:08.372Z,220.00
2018-12-14T04:49:41.561Z,202.60
2018-12-14T04:52:14.158Z,203.20
2018-12-14T04:54:46.081Z,187.80
2018-12-14T04:57:17.606Z,207.60
2018-12-14T04:59:50.284Z,187.00
2018-12-14T05:02:22.735Z,208.20
2018-12-14T05:04:57.043Z,197.60
2018-12-14T05:07:28.599Z,195.40
2018-12-14T05:10:02.569Z,194.80
2018-12-14T05:12:34.966Z,191.40
2018-12-14T05:15:07.270Z,198.80
2018-12-14T05:17:42.011Z,194.40
2018-12-14T05:20:16.620Z,190.40
2018-12-14T05:22:48.599Z,194.20
2018-12-14T05:25:24.893Z,184.80
2018-12-14T05:27:57.346Z,190.40
2018-12-14T05:30:29.398Z,201.60
2018-12-14T05:33:06.678Z,186.60
2018-12-14T05:35:42.110Z,180.40
2018-12-14T05:38:19.332Z,192.60
2018-12-14T05:40:50.959Z,181.60
2018-12-14T05:43:22.428Z,172.80
2018-12-14T05:45:54.129Z,181.80
2018-12-14T05:48:26.896Z,158.80
2018-12-14T05:51:12.674Z,171.20
2018-12-14T05:53:46.153Z,162.80
2018-12-14T05:56:17.867Z,161.20
2018-12-14T05:58:53.587Z,160.20
2018-12-14T06:01:36.442Z,177.20
2018-12-14T06:04:09.501Z,161.00
2018-12-14T06:06:41.679Z,151.80
2018-12-14T06:09:14.834Z,168.00
2018-12-14T06:11:46.689Z,129.20
2018-12-14T06:14:18.146Z,126.80
2018-12-14T06:16:49.696Z,170.00
2018-12-14T06:19:21.305Z,149.40
2018-12-14T06:21:53.809Z,112.60
2018-12-14T06:24:25.942Z,148.60
2018-12-14T06:26:57.715Z,146.60
2018-12-14T06:29:29.212Z,143.00
2018-12-14T06:32:04.827Z,138.60
2018-12-14T06:34:36.241Z,150.40
2018-12-14T06:37:09.856Z,135.80
2018-12-14T06:39:43.900Z,130.60
2018-12-14T06:42:16.505Z,141.60
2018-12-14T06:44:49.122Z,134.20
2018-12-14T06:47:26.037Z,145.00
2018-12-14T06:50:01.374Z,157.60
2018-12-14T06:52:34.436Z,142.00
2018-12-14T06:55:09.384Z,141.40
2018-12-14T06:57:41.293Z,136.00
2018-12-14T07:00:12.871Z,139.00
2018-12-14T07:02:45.164Z,144.80
2018-12-14T07:05:16.782Z,133.00
2018-12-14T07:07:48.556Z,137.80
2018-12-14T07:10:20.609Z,140.60
2018-12-14T07:12:52.679Z,135.80
2018-12-14T07:15:24.404Z,125.00
2018-12-14T07:17:56.471Z,127.60
2018-12-14T07:20:27.999Z,137.80
2018-12-14T07:22:59.736Z,128.40
2018-12-14T07:25:31.618Z,106.80
2018-12-14T07:28:03.227Z,127.80
2018-12-14T07:30:34.729Z,135.60
2018-12-14T07:33:06.517Z,131.40
2018-12-14T07:35:41.832Z,129.80
2018-12-14T07:38:12.617Z,117.20
2018-12-14T07:40:44.180Z,113.00
2018-12-14T07:43:16.033Z,103.40
2018-12-14T07:45:47.726Z,113.00
2018-12-14T07:48:19.408Z,127.40
2018-12-14T07:50:50.880Z,107.60
2018-12-14T07:53:22.407Z,108.20
2018-12-14T07:55:54.329Z,105.00
2018-12-14T07:58:25.931Z,123.60
2018-12-14T08:00:57.424Z,102.00
2018-12-14T08:03:29.088Z,93.80
2018-12-14T08:06:00.503Z,104.40
2018-12-14T08:08:31.866Z,98.80
2018-12-14T08:11:03.286Z,99.60
2018-12-14T08:13:35.109Z,102.20
2018-12-14T08:16:06.471Z,107.60
2018-12-14T08:18:38.139Z,98.80
2018-12-14T08:21:10.655Z,99.80
2018-12-14T08:23:44.710Z,99.80
2018-12-14T08:26:16.503Z,102.20
2018-12-14T08:28:48.159Z,95.80
2018-12-14T08:31:20.540Z,98.60
2018-12-14T08:33:54.041Z,102.20
2018-12-14T08:36:25.607Z,94.40
2018-12-14T08:38:57.232Z,92.80
2018-12-14T08:41:28.673Z,101.00
2018-12-14T08:44:00.321Z,167.20
2018-12-14T08:46:31.888Z,227.00
2018-12-14T08:49:04.589Z,115.00
2018-12-14T08:51:37.023Z,165.80
2018-12-14T08:54:13.936Z,139.40
2018-12-14T08:56:46.366Z,134.00
2018-12-14T08:59:18.243Z,112.20
2018-12-14T09:01:49.970Z,113.80
2018-12-14T09:04:23.464Z,115.00
2018-12-14T09:20:11.791Z,87.40
2018-12-14T09:22:44.370Z,92.40
2018-12-14T09:25:16.283Z,93.40
2018-12-14T09:27:48.510Z,99.40
2018-12-14T09:30:20.551Z,98.20
2018-12-14T09:32:52.933Z,99.80
2018-12-14T09:35:24.637Z,96.00
2018-12-14T09:37:56.472Z,86.60
2018-12-14T09:40:28.357Z,97.40
2018-12-14T09:43:00.131Z,83.00
2018-12-14T09:48:17.438Z,80.80
2018-12-14T09:50:49.298Z,92.40
2018-12-14T09:53:21.058Z,89.20
2018-12-14T09:55:52.798Z,88.20
2018-12-14T09:58:25.070Z,94.80
2018-12-14T10:00:59.113Z,99.00
2018-12-14T10:03:31.716Z,90.40
2018-12-14T10:06:05.445Z,86.40
2018-12-14T10:08:37.158Z,89.00
2018-12-14T10:11:09.795Z,93.00
2018-12-14T10:13:42.250Z,85.00
2018-12-14T10:16:15.160Z,91.40
2018-12-14T10:18:46.968Z,95.40
2018-12-14T10:21:18.678Z,84.60
2018-12-14T10:23:53.833Z,88.40
2018-12-14T10:26:26.398Z,88.00
2018-12-14T10:28:58.800Z,92.20
2018-12-14T10:31:31.618Z,96.60
2018-12-14T10:34:04.997Z,87.80
2018-12-14T10:36:42.840Z,90.00
2018-12-14T10:39:15.590Z,94.00
2018-12-14T10:41:47.119Z,95.40
2018-12-14T10:44:19.481Z,85.00
2018-12-14T10:46:50.934Z,82.00
2018-12-14T10:49:22.528Z,88.60
2018-12-14T10:51:57.886Z,80.60
2018-12-14T10:54:29.634Z,80.00
2018-12-14T10:57:01.685Z,77.40
2018-12-14T10:59:34.585Z,93.60
2018-12-14T11:02:16.874Z,83.00
2018-12-14T11:04:53.254Z,91.60
2018-12-14T11:07:24.880Z,85.60
2018-12-14T11:09:56.227Z,91.40
2018-12-14T11:12:27.792Z,83.80
2018-12-14T11:15:00.213Z,91.60
2018-12-14T11:17:34.806Z,95.00
2018-12-14T11:20:06.681Z,86.80
2018-12-14T11:22:38.279Z,86.40
2018-12-14T11:25:10.435Z,85.00
2018-12-14T11:27:49.097Z,86.00
2018-12-14T11:30:25.256Z,86.60
2018-12-14T11:32:57.978Z,87.00
2018-12-14T11:35:32.744Z,93.00
2018-12-14T11:38:08.748Z,92.20
2018-12-14T11:40:52.481Z,91.00
2018-12-14T11:43:35.288Z,89.60
2018-12-14T11:46:12.030Z,93.00
2018-12-14T11:48:47.234Z,94.20
2018-12-14T11:51:28.141Z,94.60
2018-12-14T11:54:02.071Z,96.40
2018-12-14T11:56:40.127Z,99.40
2018-12-14T11:59:11.956Z,101.20
2018-12-14T12:01:44.499Z,97.80
2018-12-14T12:04:16.596Z,107.80
2018-12-14T12:06:48.118Z,103.40
2018-12-14T12:09:21.404Z,117.00
2018-12-14T12:11:54.241Z,101.60
2018-12-14T12:14:27.048Z,110.20
2018-12-14T12:16:59.241Z,104.60
2018-12-14T12:19:31.264Z,108.60
2018-12-14T12:22:03.185Z,105.40
2018-12-14T12:24:35.851Z,119.00
2018-12-14T12:27:07.824Z,105.80
2018-12-14T12:29:39.731Z,110.60
2018-12-14T12:32:12.087Z,114.00
2018-12-14T12:34:44.001Z,109.80
2018-12-14T12:37:15.528Z,121.40
2018-12-14T12:39:47.249Z,125.60
2018-12-14T12:42:18.772Z,121.00
2018-12-14T12:44:50.915Z,133.60
2018-12-14T12:47:22.664Z,134.80
2018-12-14T12:49:54.236Z,147.60
2018-12-14T12:52:26.424Z,140.20
2018-12-14T12:54:58.589Z,152.40
2018-12-14T12:57:31.085Z,151.80
2018-12-14T13:00:03.362Z,204.60
2018-12-14T13:02:35.614Z,165.40
2018-12-14T13:05:07.595Z,173.60
2018-12-14T13:07:39.670Z,165.60
2018-12-14T13:10:11.525Z,162.00
2018-12-14T13:12:43.481Z,159.80
2018-12-14T13:15:15.210Z,157.00
2018-12-14T13:17:47.074Z,166.00
2018-12-14T13:20:18.670Z,192.75
2018-12-14T13:22:50.105Z,279.75
2018-12-14T13:25:21.639Z,297.00
2018-12-14T13:27:53.115Z,246.75
2018-12-14T13:30:24.756Z,198.00
2018-12-14T13:32:57.006Z,182.00
2018-12-14T13:35:31.587Z,158.00
2018-12-14T13:38:03.143Z,138.40
2018-12-14T13:40:37.228Z,133.40
2018-12-14T13:43:09.823Z,147.60
2018-12-14T13:45:41.481Z,124.80
2018-12-14T13:48:13.044Z,118.00
2018-12-14T13:50:44.608Z,143.40
2018-12-14T13:53:16.057Z,155.80
2018-12-14T13:55:47.598Z,146.40
2018-12-14T13:58:27.623Z,169.00
2018-12-14T14:00:59.340Z,179.60
2018-12-14T14:03:33.443Z,178.80
2018-12-14T14:06:04.994Z,169.20
2018-12-14T14:08:39.730Z,168.60
2018-12-14T14:11:20.133Z,154.20
2018-12-14T14:13:51.712Z,169.40
2018-12-14T14:16:23.275Z,162.40
2018-12-14T14:18:54.906Z,143.20
2018-12-14T14:21:30.207Z,166.80
2018-12-14T14:24:01.738Z,172.20
2018-12-14T14:26:33.415Z,170.40
2018-12-14T14:29:05.924Z,172.60
2018-12-14T14:31:38.641Z,173.00
2018-12-14T14:34:14.316Z,166.20
2018-12-14T14:36:49.076Z,161.20
2018-12-14T14:39:23.829Z,179.80
2018-12-14T14:41:55.499Z,197.40
2018-12-14T14:44:30.426Z,191.60
2018-12-14T14:47:02.183Z,190.00
2018-12-14T14:49:33.844Z,185.80
2018-12-14T14:52:05.621Z,175.80
2018-12-14T14:54:39.879Z,201.50
2018-12-14T14:57:11.487Z,198.40
2018-12-14T14:59:42.967Z,182.00
2018-12-14T15:02:14.598Z,164.20
2018-12-14T15:04:46.530Z,145.60
2018-12-14T15:07:18.308Z,171.60
2018-12-14T15:09:49.874Z,162.60
2018-12-14T15:12:21.505Z,166.60
2018-12-14T15:14:55.071Z,170.20
2018-12-14T15:17:27.719Z,183.20
2018-12-14T15:19:59.359Z,178.40
2018-12-14T15:22:32.064Z,160.80
2018-12-14T15:25:03.523Z,176.20
2018-12-14T15:27:36.120Z,188.00
2018-12-14T15:30:08.656Z,190.60
2018-12-14T15:32:41.370Z,192.60
2018-12-14T15:35:14.730Z,205.80
2018-12-14T15:37:58.280Z,185.80
2018-12-14T15:40:37.102Z,176.80
2018-12-14T15:43:08.812Z,209.25
2018-12-14T15:45:40.488Z,206.50
2018-12-14T15:48:12.168Z,200.75
2018-12-14T15:50:44.897Z,170.75
2018-12-14T15:53:20.215Z,190.25
2018-12-14T15:55:52.121Z,187.00
2018-12-14T15:58:29.957Z,202.20
2018-12-14T16:01:02.564Z,199.00
2018-12-14T16:03:43.652Z,191.00
2018-12-14T16:06:16.078Z,202.00
2018-12-14T16:08:52.264Z,190.00
2018-12-14T16:11:25.120Z,189.20
2018-12-14T16:14:02.758Z,168.40
2018-12-14T16:16:36.015Z,170.40
2018-12-14T16:19:08.929Z,176.00
2018-12-14T16:21:43.863Z,181.40
2018-12-14T16:24:15.540Z,211.80
2018-12-14T16:26:47.281Z,199.25
2018-12-14T16:29:31.260Z,187.25
2018-12-14T16:32:04.068Z,190.00
2018-12-14T16:34:37.168Z,202.00
2018-12-14T16:37:09.523Z,191.00
2018-12-14T16:39:43.044Z,197.60
2018-12-14T16:42:14.543Z,184.25
2018-12-14T16:44:46.263Z,199.40
2018-12-14T16:47:17.650Z,218.75
2018-12-14T16:49:49.352Z,189.25
2018-12-14T16:55:00.459Z,162.50
2018-12-14T16:57:31.757Z,187.40
2018-12-14T17:00:07.111Z,161.20
2018-12-14T17:02:41.858Z,176.80
2018-12-14T17:05:16.195Z,177.00
2018-12-14T17:07:48.543Z,187.40
2018-12-14T17:10:23.497Z,180.60
2018-12-14T17:12:55.141Z,188.80
2018-12-14T17:15:33.427Z,171.80
2018-12-14T17:18:05.342Z,159.80
2018-12-14T17:20:37.117Z,162.20
2018-12-14T17:23:13.625Z,148.60
2018-12-14T17:25:45.327Z,148.00
2018-12-14T17:28:17.048Z,176.60
2018-12-14T17:30:49.222Z,163.00
2018-12-14T17:33:35.915Z,150.60
2018-12-14T17:36:18.771Z,148.80
2018-12-14T17:38:55.820Z,151.80
2018-12-14T17:41:38.710Z,158.60
2018-12-14T17:44:15.263Z,152.00
2018-12-14T17:46:50.444Z,150.60
2018-12-14T17:49:25.964Z,137.80
2018-12-14T17:51:58.677Z,162.60
2018-12-14T17:54:33.468Z,143.60
2018-12-14T17:57:07.411Z,142.40
2018-12-14T17:59:40.901Z,146.60
2018-12-14T18:02:13.632Z,135.60
2018-12-14T18:04:51.008Z,133.60
2018-12-14T18:07:22.618Z,109.80
2018-12-14T18:09:59.345Z,142.20
2018-12-14T18:12:31.150Z,141.60
2018-12-14T18:15:02.619Z,150.60
2018-12-14T18:17:34.469Z,150.80
2018-12-14T18:20:10.584Z,137.60
2018-12-14T18:22:47.871Z,139.80
2018-12-14T18:25:20.786Z,124.60
2018-12-14T18:27:53.503Z,139.20
2018-12-14T18:30:25.114Z,133.20
2018-12-14T18:33:00.437Z,142.60
2018-12-14T18:35:36.129Z,107.80
2018-12-14T18:38:11.103Z,135.80
2018-12-14T18:40:43.025Z,144.40
2018-12-14T18:43:14.741Z,138.40
2018-12-14T18:45:53.400Z,128.80
2018-12-14T18:48:29.605Z,144.80
2018-12-14T18:51:04.394Z,149.20
2018-12-14T18:53:35.970Z,136.20
2018-12-14T18:56:10.703Z,146.20
2018-12-14T18:58:47.005Z,151.60
2018-12-14T19:01:23.703Z,128.40
2018-12-14T19:04:02.484Z,138.20
2018-12-14T19:06:35.083Z,141.60
2018-12-14T19:09:07.540Z,153.40
2018-12-14T19:11:41.946Z,119.80
2018-12-14T19:14:13.672Z,131.80
2018-12-14T19:16:52.133Z,146.60
2018-12-14T19:19:23.695Z,130.60
2018-12-14T19:22:02.203Z,132.40
2018-12-14T19:24:35.085Z,141.00
2018-12-14T19:27:08.690Z,149.40
2018-12-14T19:29:43.815Z,136.00
2018-12-14T19:32:15.354Z,135.80
2018-12-14T19:34:47.423Z,142.80
2018-12-14T19:37:24.200Z,148.20
2018-12-14T19:39:56.145Z,146.80
2018-12-14T19:42:35.557Z,146.00
2018-12-14T19:45:14.405Z,139.40
2018-12-14T19:47:46.211Z,141.60
2018-12-14T19:50:17.780Z,136.00
2018-12-14T19:52:55.296Z,123.40
2018-12-14T19:55:30.544Z,156.40
2018-12-14T19:58:04.091Z,144.00
2018-12-14T20:00:38.846Z,143.20
2018-12-14T20:03:10.423Z,129.40
2018-12-14T20:05:45.313Z,137.20
2018-12-14T20:08:17.865Z,138.60
2018-12-14T20:10:49.592Z,115.40
2018-12-14T20:13:26.832Z,136.60
2018-12-14T20:15:58.435Z,134.40
2018-12-14T20:18:35.292Z,131.20
2018-12-14T20:21:22.527Z,134.40
2018-12-14T20:23:57.517Z,137.40
2018-12-14T20:26:31.215Z,122.00
2018-12-14T20:29:03.744Z,157.00
2018-12-14T20:31:37.413Z,133.80
2018-12-14T20:34:11.912Z,137.40
2018-12-14T20:36:46.736Z,135.60
2018-12-14T20:39:18.644Z,145.60
2018-12-14T20:41:50.385Z,135.60
2018-12-14T20:44:24.647Z,134.20
2018-12-14T20:46:56.296Z,131.60
2018-12-14T20:49:29.682Z,132.20
2018-12-14T20:52:01.671Z,149.20
2018-12-14T20:54:33.308Z,137.20
2018-12-14T20:57:07.511Z,132.00
2018-12-14T20:59:39.154Z,142.00
2018-12-14T21:02:14.318Z,132.00
2018-12-14T21:04:48.000Z,143.80
2018-12-14T21:07:20.787Z,133.40
2018-12-14T21:09:57.958Z,132.20
2018-12-14T21:12:31.487Z,148.00
2018-12-14T21:15:04.524Z,144.20
2018-12-14T21:17:39.423Z,142.80
2018-12-14T21:20:10.958Z,146.20
2018-12-14T21:22:47.548Z,158.00
2018-12-14T21:25:24.406Z,133.60
2018-12-14T21:27:56.131Z,150.80
2018-12-14T21:30:33.874Z,145.40
2018-12-14T21:33:08.801Z,139.40
2018-12-14T21:35:41.767Z,141.80
2018-12-14T21:38:17.274Z,142.40
2018-12-14T21:40:53.919Z,130.40
2018-12-14T21:43:26.527Z,148.40
2018-12-14T21:45:58.627Z,148.60
2018-12-14T21:48:30.320Z,136.40
2018-12-14T21:51:01.978Z,141.40
2018-12-14T21:53:37.221Z,148.80
2018-12-14T21:56:13.413Z,141.20
2018-12-14T21:58:45.101Z,133.60
2018-12-14T22:01:20.235Z,135.60
2018-12-14T22:03:51.821Z,137.40
2018-12-14T22:06:28.442Z,143.20
2018-12-14T22:09:00.055Z,157.00
2018-12-14T22:11:37.042Z,141.80
2018-12-14T22:14:09.598Z,156.60
2018-12-14T22:16:45.516Z,139.40
2018-12-14T22:19:17.289Z,148.80
2018-12-14T22:21:48.847Z,141.80
2018-12-14T22:24:21.635Z,139.20
2018-12-14T22:27:02.923Z,124.20
2018-12-14T22:29:40.747Z,135.40
2018-12-14T22:32:12.268Z,158.00
2018-12-14T22:34:47.987Z,145.80
2018-12-14T22:37:23.388Z,128.60
2018-12-14T22:40:03.045Z,138.60
2018-12-14T22:42:43.355Z,131.00
2018-12-14T22:45:27.728Z,156.20
2018-12-14T22:48:15.692Z,140.60
2018-12-14T22:50:57.154Z,142.20
2018-12-14T22:53:45.989Z,134.00
2018-12-14T22:56:23.361Z,131.60
2018-12-14T22:58:55.848Z,141.20
2018-12-14T23:01:32.008Z,145.20
2018-12-14T23:04:10.438Z,145.80
2018-12-14T23:06:42.344Z,139.40
2018-12-14T23:09:18.754Z,120.80
2018-12-14T23:11:51.379Z,140.40
2018-12-14T23:14:26.604Z,143.40
2018-12-14T23:16:58.412Z,144.80
2018-12-14T23:19:30.416Z,142.20
2018-12-14T23:22:02.154Z,141.40
2018-12-14T23:24:33.715Z,134.60
2018-12-14T23:27:09.199Z,146.00
2018-12-14T23:29:45.465Z,150.20
2018-12-14T23:32:20.668Z,151.40
2018-12-14T23:34:52.369Z,145.20
2018-12-14T23:37:30.534Z,146.20
2018-12-14T23:40:01.998Z,134.40
2018-12-14T23:42:33.681Z,130.80
2018-12-14T23:45:16.216Z,138.40
2018-12-14T23:47:47.795Z,153.00
2018-12-14T23:50:20.861Z,143.80
2018-12-14T23:52:59.876Z,145.20
2018-12-14T23:55:31.246Z,148.60
2018-12-14T23:58:07.474Z,137.40
